sensor_id;sensor_type;location;lat;lon;timestamp;temperature;humidity
82788;DHT22;72529;51.786;4.662;2024-03-23T00:53:08;9.50;79.87
82788;DHT22;72529;51.786;4.662;2024-03-23T00:55:33;9.51;79.84
82788;DHT22;72529;51.786;4.662;2024-03-23T00:57:59;9.54;79.84
82788;DHT22;72529;51.786;4.662;2024-03-23T01:00:24;9.55;79.44
82788;DHT22;72529;51.786;4.662;2024-03-23T01:02:50;9.58;78.51
82788;DHT22;72529;51.786;4.662;2024-03-23T01:05:15;9.45;78.40
82788;DHT22;72529;51.786;4.662;2024-03-23T01:07:40;9.44;78.76
82788;DHT22;72529;51.786;4.662;2024-03-23T01:10:06;9.42;79.10
82788;DHT22;72529;51.786;4.662;2024-03-23T01:12:31;9.42;79.33
82788;DHT22;72529;51.786;4.662;2024-03-23T01:14:57;9.38;79.68
82788;DHT22;72529;51.786;4.662;2024-03-23T01:17:22;9.37;79.02
82788;DHT22;72529;51.786;4.662;2024-03-23T01:19:47;9.32;79.12
82788;DHT22;72529;51.786;4.662;2024-03-23T01:22:13;9.32;78.50
82788;DHT22;72529;51.786;4.662;2024-03-23T01:24:38;9.26;78.60
82788;DHT22;72529;51.786;4.662;2024-03-23T01:27:04;9.31;79.11
82788;DHT22;72529;51.786;4.662;2024-03-23T01:29:29;9.31;79.07
82788;DHT22;72529;51.786;4.662;2024-03-23T01:31:55;9.32;79.46
82788;DHT22;72529;51.786;4.662;2024-03-23T01:34:20;9.38;79.75
82788;DHT22;72529;51.786;4.662;2024-03-23T01:36:46;9.35;79.72
82788;DHT22;72529;51.786;4.662;2024-03-23T01:39:12;9.31;79.82
82788;DHT22;72529;51.786;4.662;2024-03-23T01:41:38;9.23;79.81
82788;DHT22;72529;51.786;4.662;2024-03-23T01:44:07;9.21;80.07
82788;DHT22;72529;51.786;4.662;2024-03-23T01:46:39;9.20;80.00
82788;DHT22;72529;51.786;4.662;2024-03-23T01:49:05;9.24;79.90
82788;DHT22;72529;51.786;4.662;2024-03-23T01:51:32;9.24;79.80
82788;DHT22;72529;51.786;4.662;2024-03-23T01:53:58;9.18;79.79
82788;DHT22;72529;51.786;4.662;2024-03-23T01:56:28;9.11;79.83
82788;DHT22;72529;51.786;4.662;2024-03-23T01:58:53;9.13;79.94
82788;DHT22;72529;51.786;4.662;2024-03-23T02:01:19;9.08;80.28
82788;DHT22;72529;51.786;4.662;2024-03-23T02:03:44;9.08;80.30
82788;DHT22;72529;51.786;4.662;2024-03-23T02:06:10;9.08;80.32
82788;DHT22;72529;51.786;4.662;2024-03-23T02:08:36;9.11;80.50
82788;DHT22;72529;51.786;4.662;2024-03-23T02:11:01;9.11;80.29
82788;DHT22;72529;51.786;4.662;2024-03-23T02:13:26;9.08;80.13
82788;DHT22;72529;51.786;4.662;2024-03-23T02:15:52;9.00;80.18
82788;DHT22;72529;51.786;4.662;2024-03-23T02:18:17;8.99;80.27
82788;DHT22;72529;51.786;4.662;2024-03-23T02:20:43;8.94;80.33
82788;DHT22;72529;51.786;4.662;2024-03-23T02:23:17;8.93;80.30
82788;DHT22;72529;51.786;4.662;2024-03-23T02:25:44;8.84;80.21
82788;DHT22;72529;51.786;4.662;2024-03-23T02:28:10;8.83;80.45
82788;DHT22;72529;51.786;4.662;2024-03-23T02:30:36;8.76;80.44
82788;DHT22;72529;51.786;4.662;2024-03-23T02:33:01;8.77;80.52
82788;DHT22;72529;51.786;4.662;2024-03-23T02:35:27;8.75;80.38
82788;DHT22;72529;51.786;4.662;2024-03-23T02:37:52;8.76;80.29
82788;DHT22;72529;51.786;4.662;2024-03-23T02:40:19;8.75;80.24
82788;DHT22;72529;51.786;4.662;2024-03-23T02:42:45;8.75;80.22
82788;DHT22;72529;51.786;4.662;2024-03-23T02:45:11;8.70;80.23
82788;DHT22;72529;51.786;4.662;2024-03-23T02:47:36;8.66;80.16
82788;DHT22;72529;51.786;4.662;2024-03-23T02:50:02;8.57;80.35
82788;DHT22;72529;51.786;4.662;2024-03-23T02:52:27;8.53;80.33
82788;DHT22;72529;51.786;4.662;2024-03-23T02:54:53;8.46;80.30
82788;DHT22;72529;51.786;4.662;2024-03-23T02:57:18;8.44;80.67
82788;DHT22;72529;51.786;4.662;2024-03-23T02:59:43;8.41;80.65
82788;DHT22;72529;51.786;4.662;2024-03-23T03:02:09;8.42;80.35
82788;DHT22;72529;51.786;4.662;2024-03-23T03:04:34;8.34;80.38
82788;DHT22;72529;51.786;4.662;2024-03-23T03:07:00;8.35;80.41
82788;DHT22;72529;51.786;4.662;2024-03-23T03:09:25;8.25;80.39
82788;DHT22;72529;51.786;4.662;2024-03-23T03:11:51;8.20;80.41
82788;DHT22;72529;51.786;4.662;2024-03-23T03:14:16;8.18;80.55
82788;DHT22;72529;51.786;4.662;2024-03-23T03:16:42;8.15;80.50
82788;DHT22;72529;51.786;4.662;2024-03-23T03:19:07;8.09;80.49
82788;DHT22;72529;51.786;4.662;2024-03-23T03:21:32;8.09;80.38
82788;DHT22;72529;51.786;4.662;2024-03-23T03:23:58;8.02;80.54
82788;DHT22;72529;51.786;4.662;2024-03-23T03:26:23;8.01;80.52
82788;DHT22;72529;51.786;4.662;2024-03-23T03:28:50;7.98;80.50
82788;DHT22;72529;51.786;4.662;2024-03-23T03:31:15;7.97;80.50
82788;DHT22;72529;51.786;4.662;2024-03-23T03:33:42;7.97;80.53
82788;DHT22;72529;51.786;4.662;2024-03-23T03:36:07;7.95;80.50
82788;DHT22;72529;51.786;4.662;2024-03-23T03:38:33;7.88;80.18
82788;DHT22;72529;51.786;4.662;2024-03-23T03:41:01;7.82;80.33
82788;DHT22;72529;51.786;4.662;2024-03-23T03:43:26;7.87;80.41
82788;DHT22;72529;51.786;4.662;2024-03-23T03:45:56;7.85;80.29
82788;DHT22;72529;51.786;4.662;2024-03-23T03:48:22;7.81;80.28
82788;DHT22;72529;51.786;4.662;2024-03-23T03:50:48;7.84;80.27
82788;DHT22;72529;51.786;4.662;2024-03-23T03:53:14;7.82;80.15
82788;DHT22;72529;51.786;4.662;2024-03-23T03:55:40;7.82;80.04
82788;DHT22;72529;51.786;4.662;2024-03-23T03:58:05;7.75;79.93
82788;DHT22;72529;51.786;4.662;2024-03-23T04:00:31;7.69;79.68
82788;DHT22;72529;51.786;4.662;2024-03-23T04:02:56;7.70;79.54
82788;DHT22;72529;51.786;4.662;2024-03-23T04:05:22;7.73;79.64
82788;DHT22;72529;51.786;4.662;2024-03-23T04:07:48;7.73;79.74
82788;DHT22;72529;51.786;4.662;2024-03-23T04:10:14;7.70;79.83
82788;DHT22;72529;51.786;4.662;2024-03-23T04:12:40;7.69;79.66
82788;DHT22;72529;51.786;4.662;2024-03-23T04:15:06;7.71;79.69
82788;DHT22;72529;51.786;4.662;2024-03-23T04:17:32;7.71;79.72
82788;DHT22;72529;51.786;4.662;2024-03-23T04:20:00;7.77;79.67
82788;DHT22;72529;51.786;4.662;2024-03-23T04:22:27;7.74;79.60
82788;DHT22;72529;51.786;4.662;2024-03-23T04:24:53;7.77;79.29
82788;DHT22;72529;51.786;4.662;2024-03-23T04:27:19;7.73;79.30
82788;DHT22;72529;51.786;4.662;2024-03-23T04:29:51;7.66;79.30
82788;DHT22;72529;51.786;4.662;2024-03-23T04:32:17;7.63;79.22
82788;DHT22;72529;51.786;4.662;2024-03-23T04:34:43;7.69;79.04
82788;DHT22;72529;51.786;4.662;2024-03-23T04:37:09;7.66;78.37
82788;DHT22;72529;51.786;4.662;2024-03-23T04:39:36;7.57;78.34
82788;DHT22;72529;51.786;4.662;2024-03-23T04:42:02;7.61;78.50
82788;DHT22;72529;51.786;4.662;2024-03-23T04:44:28;7.63;78.28
82788;DHT22;72529;51.786;4.662;2024-03-23T04:46:54;7.59;78.27
82788;DHT22;72529;51.786;4.662;2024-03-23T04:49:19;7.56;78.35
82788;DHT22;72529;51.786;4.662;2024-03-23T04:51:45;7.51;78.28
82788;DHT22;72529;51.786;4.662;2024-03-23T04:54:12;7.51;78.35
82788;DHT22;72529;51.786;4.662;2024-03-23T04:56:37;7.51;78.03
82788;DHT22;72529;51.786;4.662;2024-03-23T04:59:03;7.56;78.51
82788;DHT22;72529;51.786;4.662;2024-03-23T05:01:30;7.51;78.86
82788;DHT22;72529;51.786;4.662;2024-03-23T05:03:56;7.59;78.96
82788;DHT22;72529;51.786;4.662;2024-03-23T05:06:23;7.54;78.89
82788;DHT22;72529;51.786;4.662;2024-03-23T05:08:48;7.53;78.13
82788;DHT22;72529;51.786;4.662;2024-03-23T05:11:14;7.51;78.15
82788;DHT22;72529;51.786;4.662;2024-03-23T05:13:41;7.53;77.95
82788;DHT22;72529;51.786;4.662;2024-03-23T05:16:07;7.59;78.42
82788;DHT22;72529;51.786;4.662;2024-03-23T05:18:32;7.63;78.57
82788;DHT22;72529;51.786;4.662;2024-03-23T05:20:58;7.60;78.82
82788;DHT22;72529;51.786;4.662;2024-03-23T05:23:25;7.71;78.22
82788;DHT22;72529;51.786;4.662;2024-03-23T05:25:51;7.77;77.55
82788;DHT22;72529;51.786;4.662;2024-03-23T05:28:20;7.80;77.32
82788;DHT22;72529;51.786;4.662;2024-03-23T05:30:52;7.74;77.02
82788;DHT22;72529;51.786;4.662;2024-03-23T05:33:19;7.67;78.06
82788;DHT22;72529;51.786;4.662;2024-03-23T05:35:45;7.67;77.90
82788;DHT22;72529;51.786;4.662;2024-03-23T05:38:10;7.69;78.29
82788;DHT22;72529;51.786;4.662;2024-03-23T05:40:36;7.73;78.48
82788;DHT22;72529;51.786;4.662;2024-03-23T05:43:03;7.70;78.53
82788;DHT22;72529;51.786;4.662;2024-03-23T05:45:29;7.70;78.95
82788;DHT22;72529;51.786;4.662;2024-03-23T05:47:54;7.73;78.37
82788;DHT22;72529;51.786;4.662;2024-03-23T05:50:22;7.77;77.85
82788;DHT22;72529;51.786;4.662;2024-03-23T05:52:49;7.75;78.34
82788;DHT22;72529;51.786;4.662;2024-03-23T05:55:14;7.78;78.51
82788;DHT22;72529;51.786;4.662;2024-03-23T05:57:40;7.81;78.68
82788;DHT22;72529;51.786;4.662;2024-03-23T06:00:06;7.84;77.91
82788;DHT22;72529;51.786;4.662;2024-03-23T06:02:36;7.81;78.17
82788;DHT22;72529;51.786;4.662;2024-03-23T06:05:02;7.84;78.51
82788;DHT22;72529;51.786;4.662;2024-03-23T06:07:27;7.88;78.76
82788;DHT22;72529;51.786;4.662;2024-03-23T06:09:52;7.90;78.81
82788;DHT22;72529;51.786;4.662;2024-03-23T06:12:18;7.88;78.56
82788;DHT22;72529;51.786;4.662;2024-03-23T06:14:44;7.95;78.36
82788;DHT22;72529;51.786;4.662;2024-03-23T06:17:09;7.97;78.84
82788;DHT22;72529;51.786;4.662;2024-03-23T06:19:34;8.01;78.43
82788;DHT22;72529;51.786;4.662;2024-03-23T06:22:00;8.04;78.84
82788;DHT22;72529;51.786;4.662;2024-03-23T06:24:25;8.05;79.09
82788;DHT22;72529;51.786;4.662;2024-03-23T06:26:51;8.05;78.65
82788;DHT22;72529;51.786;4.662;2024-03-23T06:29:16;8.09;78.59
82788;DHT22;72529;51.786;4.662;2024-03-23T06:31:42;8.06;78.34
82788;DHT22;72529;51.786;4.662;2024-03-23T06:34:07;7.98;77.94
82788;DHT22;72529;51.786;4.662;2024-03-23T06:36:32;7.97;77.79
82788;DHT22;72529;51.786;4.662;2024-03-23T06:38:58;7.98;77.89
82788;DHT22;72529;51.786;4.662;2024-03-23T06:41:25;8.02;77.11
82788;DHT22;72529;51.786;4.662;2024-03-23T06:43:50;8.05;77.84
82788;DHT22;72529;51.786;4.662;2024-03-23T06:46:16;8.14;76.81
82788;DHT22;72529;51.786;4.662;2024-03-23T06:48:41;8.20;77.04
82788;DHT22;72529;51.786;4.662;2024-03-23T06:51:07;8.28;77.83
82788;DHT22;72529;51.786;4.662;2024-03-23T06:53:32;8.38;76.83
82788;DHT22;72529;51.786;4.662;2024-03-23T06:55:58;8.44;77.59
82788;DHT22;72529;51.786;4.662;2024-03-23T06:58:24;8.48;76.66
82788;DHT22;72529;51.786;4.662;2024-03-23T07:00:51;8.44;76.63
82788;DHT22;72529;51.786;4.662;2024-03-23T07:03:16;8.45;76.77
82788;DHT22;72529;51.786;4.662;2024-03-23T07:05:42;8.42;77.41
82788;DHT22;72529;51.786;4.662;2024-03-23T07:08:08;8.49;76.87
82788;DHT22;72529;51.786;4.662;2024-03-23T07:10:33;8.35;76.82
82788;DHT22;72529;51.786;4.662;2024-03-23T07:12:59;8.34;77.48
82788;DHT22;72529;51.786;4.662;2024-03-23T07:15:24;8.31;77.00
82788;DHT22;72529;51.786;4.662;2024-03-23T07:17:50;8.28;77.10
82788;DHT22;72529;51.786;4.662;2024-03-23T07:20:15;8.28;76.66
82788;DHT22;72529;51.786;4.662;2024-03-23T07:22:41;8.35;75.97
82788;DHT22;72529;51.786;4.662;2024-03-23T07:25:07;8.31;75.51
82788;DHT22;72529;51.786;4.662;2024-03-23T07:27:33;8.32;76.40
82788;DHT22;72529;51.786;4.662;2024-03-23T07:29:59;8.36;76.58
82788;DHT22;72529;51.786;4.662;2024-03-23T07:32:26;8.44;75.31
82788;DHT22;72529;51.786;4.662;2024-03-23T07:34:52;8.45;75.58
82788;DHT22;72529;51.786;4.662;2024-03-23T07:37:17;8.50;75.29
82788;DHT22;72529;51.786;4.662;2024-03-23T07:39:43;8.63;75.62
82788;DHT22;72529;51.786;4.662;2024-03-23T07:42:08;8.79;75.19
82788;DHT22;72529;51.786;4.662;2024-03-23T07:44:34;8.89;73.67
82788;DHT22;72529;51.786;4.662;2024-03-23T07:47:00;8.90;74.33
82788;DHT22;72529;51.786;4.662;2024-03-23T07:49:26;8.73;73.83
82788;DHT22;72529;51.786;4.662;2024-03-23T07:51:52;8.69;74.64
82788;DHT22;72529;51.786;4.662;2024-03-23T07:54:17;8.75;73.66
82788;DHT22;72529;51.786;4.662;2024-03-23T07:56:42;8.60;73.21
82788;DHT22;72529;51.786;4.662;2024-03-23T07:59:08;8.60;74.45
82788;DHT22;72529;51.786;4.662;2024-03-23T08:01:33;8.46;73.73
82788;DHT22;72529;51.786;4.662;2024-03-23T08:03:59;8.39;74.01
82788;DHT22;72529;51.786;4.662;2024-03-23T08:06:25;8.34;73.39
82788;DHT22;72529;51.786;4.662;2024-03-23T08:08:57;8.42;74.21
82788;DHT22;72529;51.786;4.662;2024-03-23T08:11:27;8.50;73.76
82788;DHT22;72529;51.786;4.662;2024-03-23T08:13:53;8.45;74.11
82788;DHT22;72529;51.786;4.662;2024-03-23T08:16:19;8.44;73.84
82788;DHT22;72529;51.786;4.662;2024-03-23T08:18:44;8.63;74.60
82788;DHT22;72529;51.786;4.662;2024-03-23T08:21:10;8.75;74.08
82788;DHT22;72529;51.786;4.662;2024-03-23T08:23:37;8.72;72.88
82788;DHT22;72529;51.786;4.662;2024-03-23T08:26:11;8.83;73.94
82788;DHT22;72529;51.786;4.662;2024-03-23T08:28:38;8.89;72.95
82788;DHT22;72529;51.786;4.662;2024-03-23T08:31:06;9.03;73.84
82788;DHT22;72529;51.786;4.662;2024-03-23T08:33:32;9.11;73.04
82788;DHT22;72529;51.786;4.662;2024-03-23T08:35:59;9.04;71.55
82788;DHT22;72529;51.786;4.662;2024-03-23T08:38:26;9.13;72.65
82788;DHT22;72529;51.786;4.662;2024-03-23T08:41:02;9.38;73.15
82788;DHT22;72529;51.786;4.662;2024-03-23T08:43:28;9.63;72.01
82788;DHT22;72529;51.786;4.662;2024-03-23T08:46:07;9.82;71.47
82788;DHT22;72529;51.786;4.662;2024-03-23T08:48:37;9.62;70.17
82788;DHT22;72529;51.786;4.662;2024-03-23T08:51:04;9.50;71.01
82788;DHT22;72529;51.786;4.662;2024-03-23T08:53:30;9.34;70.08
82788;DHT22;72529;51.786;4.662;2024-03-23T08:55:57;9.35;71.53
82788;DHT22;72529;51.786;4.662;2024-03-23T08:58:24;9.35;70.59
82788;DHT22;72529;51.786;4.662;2024-03-23T09:00:54;9.04;70.76
82788;DHT22;72529;51.786;4.662;2024-03-23T09:03:25;9.00;71.63
82788;DHT22;72529;51.786;4.662;2024-03-23T09:05:51;8.81;70.94
82788;DHT22;72529;51.786;4.662;2024-03-23T09:08:18;8.94;71.84
82788;DHT22;72529;51.786;4.662;2024-03-23T09:10:44;9.30;70.79
82788;DHT22;72529;51.786;4.662;2024-03-23T09:13:10;9.44;69.70
82788;DHT22;72529;51.786;4.662;2024-03-23T09:15:37;9.79;70.67
82788;DHT22;72529;51.786;4.662;2024-03-23T09:18:03;10.05;69.02
82788;DHT22;72529;51.786;4.662;2024-03-23T09:20:32;9.72;68.71
82788;DHT22;72529;51.786;4.662;2024-03-23T09:22:58;9.57;69.96
82788;DHT22;72529;51.786;4.662;2024-03-23T09:25:23;9.62;68.48
82788;DHT22;72529;51.786;4.662;2024-03-23T09:27:50;9.37;68.91
82788;DHT22;72529;51.786;4.662;2024-03-23T09:30:15;9.03;68.07
82788;DHT22;72529;51.786;4.662;2024-03-23T09:32:43;9.24;69.51
82788;DHT22;72529;51.786;4.662;2024-03-23T09:35:08;9.61;68.54
82788;DHT22;72529;51.786;4.662;2024-03-23T09:37:34;9.74;68.54
82788;DHT22;72529;51.786;4.662;2024-03-23T09:39:59;9.40;67.93
82788;DHT22;72529;51.786;4.662;2024-03-23T09:42:24;9.38;67.86
82788;DHT22;72529;51.786;4.662;2024-03-23T09:44:51;9.72;69.52
82788;DHT22;72529;51.786;4.662;2024-03-23T09:47:17;10.12;68.02
82788;DHT22;72529;51.786;4.662;2024-03-23T09:49:43;10.15;66.51
82788;DHT22;72529;51.786;4.662;2024-03-23T09:52:09;9.77;66.37
82788;DHT22;72529;51.786;4.662;2024-03-23T09:54:34;9.34;65.68
82788;DHT22;72529;51.786;4.662;2024-03-23T09:57:00;9.10;67.50
82788;DHT22;72529;51.786;4.662;2024-03-23T09:59:26;9.18;67.61
82788;DHT22;72529;51.786;4.662;2024-03-23T10:01:52;9.27;69.13
82788;DHT22;72529;51.786;4.662;2024-03-23T10:04:37;9.24;68.15
82788;DHT22;72529;51.786;4.662;2024-03-23T10:07:18;9.24;67.99
82788;DHT22;72529;51.786;4.662;2024-03-23T10:09:43;9.07;69.97
82788;DHT22;72529;51.786;4.662;2024-03-23T10:14:35;9.24;66.85
82788;DHT22;72529;51.786;4.662;2024-03-23T10:17:14;9.35;66.98
82788;DHT22;72529;51.786;4.662;2024-03-23T10:19:43;9.42;67.07
82788;DHT22;72529;51.786;4.662;2024-03-23T10:22:12;9.44;68.05
82788;DHT22;72529;51.786;4.662;2024-03-23T10:24:38;9.50;68.31
82788;DHT22;72529;51.786;4.662;2024-03-23T10:27:03;9.65;65.96
82788;DHT22;72529;51.786;4.662;2024-03-23T10:29:29;9.42;66.48
82788;DHT22;72529;51.786;4.662;2024-03-23T10:32:07;9.37;66.76
82788;DHT22;72529;51.786;4.662;2024-03-23T10:34:33;9.35;66.22
82788;DHT22;72529;51.786;4.662;2024-03-23T10:37:02;9.55;68.37
82788;DHT22;72529;51.786;4.662;2024-03-23T10:39:30;9.35;68.98
82788;DHT22;72529;51.786;4.662;2024-03-23T10:42:00;9.03;69.43
82788;DHT22;72529;51.786;4.662;2024-03-23T10:44:29;8.75;69.77
82788;DHT22;72529;51.786;4.662;2024-03-23T10:46:59;8.52;71.62
82788;DHT22;72529;51.786;4.662;2024-03-23T10:49:32;8.60;72.16
82788;DHT22;72529;51.786;4.662;2024-03-23T10:52:02;9.03;72.20
82788;DHT22;72529;51.786;4.662;2024-03-23T10:54:30;9.44;71.44
82788;DHT22;72529;51.786;4.662;2024-03-23T10:57:10;9.96;69.37
82788;DHT22;72529;51.786;4.662;2024-03-23T10:59:37;10.33;70.66
82788;DHT22;72529;51.786;4.662;2024-03-23T11:02:03;10.61;67.51
82788;DHT22;72529;51.786;4.662;2024-03-23T11:04:36;10.57;66.58
82788;DHT22;72529;51.786;4.662;2024-03-23T11:07:31;10.35;67.26
82788;DHT22;72529;51.786;4.662;2024-03-23T11:09:58;9.77;68.78
82788;DHT22;72529;51.786;4.662;2024-03-23T11:14:59;9.98;69.72
82788;DHT22;72529;51.786;4.662;2024-03-23T11:17:26;10.09;66.96
82788;DHT22;72529;51.786;4.662;2024-03-23T11:19:58;10.15;67.53
82788;DHT22;72529;51.786;4.662;2024-03-23T11:22:40;10.81;68.46
82788;DHT22;72529;51.786;4.662;2024-03-23T11:27:38;11.32;63.70
82788;DHT22;72529;51.786;4.662;2024-03-23T11:30:30;11.14;63.53
82788;DHT22;72529;51.786;4.662;2024-03-23T11:32:57;11.06;63.49
82788;DHT22;72529;51.786;4.662;2024-03-23T11:35:33;11.39;63.36
82788;DHT22;72529;51.786;4.662;2024-03-23T11:40:41;11.10;60.33
82788;DHT22;72529;51.786;4.662;2024-03-23T11:43:08;10.76;59.79
82788;DHT22;72529;51.786;4.662;2024-03-23T11:45:47;10.20;61.78
82788;DHT22;72529;51.786;4.662;2024-03-23T11:48:15;9.88;62.41
82788;DHT22;72529;51.786;4.662;2024-03-23T11:50:45;10.03;63.05
82788;DHT22;72529;51.786;4.662;2024-03-23T11:58:16;10.68;60.93
82788;DHT22;72529;51.786;4.662;2024-03-23T12:00:42;10.50;62.30
82788;DHT22;72529;51.786;4.662;2024-03-23T12:03:08;10.30;64.65
82788;DHT22;72529;51.786;4.662;2024-03-23T12:05:36;10.53;63.20
82788;DHT22;72529;51.786;4.662;2024-03-23T12:08:21;10.30;63.58
82788;DHT22;72529;51.786;4.662;2024-03-23T12:10:49;10.30;62.79
82788;DHT22;72529;51.786;4.662;2024-03-23T12:13:18;10.26;61.74
82788;DHT22;72529;51.786;4.662;2024-03-23T12:15:45;10.03;64.12
82788;DHT22;72529;51.786;4.662;2024-03-23T12:18:11;9.92;62.38
82788;DHT22;72529;51.786;4.662;2024-03-23T12:20:37;9.83;63.23
82788;DHT22;72529;51.786;4.662;2024-03-23T12:23:07;9.71;63.95
82788;DHT22;72529;51.786;4.662;2024-03-23T12:25:32;9.57;63.57
82788;DHT22;72529;51.786;4.662;2024-03-23T12:28:01;9.44;64.75
82788;DHT22;72529;51.786;4.662;2024-03-23T12:30:26;9.28;63.63
82788;DHT22;72529;51.786;4.662;2024-03-23T12:32:52;9.23;62.81
82788;DHT22;72529;51.786;4.662;2024-03-23T12:35:18;9.21;62.88
82788;DHT22;72529;51.786;4.662;2024-03-23T12:37:43;9.20;62.85
82788;DHT22;72529;51.786;4.662;2024-03-23T12:40:09;9.26;64.60
82788;DHT22;72529;51.786;4.662;2024-03-23T12:42:35;9.50;64.66
82788;DHT22;72529;51.786;4.662;2024-03-23T12:45:00;10.05;65.26
82788;DHT22;72529;51.786;4.662;2024-03-23T12:47:26;10.56;64.48
82788;DHT22;72529;51.786;4.662;2024-03-23T12:49:52;11.06;64.43
82788;DHT22;72529;51.786;4.662;2024-03-23T12:52:17;11.59;61.21
82788;DHT22;72529;51.786;4.662;2024-03-23T12:54:45;11.71;57.22
82788;DHT22;72529;51.786;4.662;2024-03-23T12:57:10;11.39;56.34
82788;DHT22;72529;51.786;4.662;2024-03-23T12:59:36;11.14;60.30
82788;DHT22;72529;51.786;4.662;2024-03-23T13:02:01;11.00;58.42
82788;DHT22;72529;51.786;4.662;2024-03-23T13:04:26;10.66;59.48
82788;DHT22;72529;51.786;4.662;2024-03-23T13:06:52;10.83;61.39
82788;DHT22;72529;51.786;4.662;2024-03-23T13:09:17;11.08;62.65
82788;DHT22;72529;51.786;4.662;2024-03-23T13:11:43;11.68;58.31
82788;DHT22;72529;51.786;4.662;2024-03-23T13:14:09;12.00;59.65
82788;DHT22;72529;51.786;4.662;2024-03-23T13:16:34;12.29;58.88
82788;DHT22;72529;51.786;4.662;2024-03-23T13:18:59;12.51;57.75
82788;DHT22;72529;51.786;4.662;2024-03-23T13:21:26;12.26;57.10
82788;DHT22;72529;51.786;4.662;2024-03-23T13:23:51;11.93;59.94
82788;DHT22;72529;51.786;4.662;2024-03-23T13:26:17;11.41;59.59
82788;DHT22;72529;51.786;4.662;2024-03-23T13:28:42;11.14;61.97
82788;DHT22;72529;51.786;4.662;2024-03-23T13:31:08;10.81;59.05
82788;DHT22;72529;51.786;4.662;2024-03-23T13:33:34;10.46;61.21
82788;DHT22;72529;51.786;4.662;2024-03-23T13:35:59;10.35;60.18
82788;DHT22;72529;51.786;4.662;2024-03-23T13:38:25;10.76;60.13
82788;DHT22;72529;51.786;4.662;2024-03-23T13:43:16;11.36;60.41
82788;DHT22;72529;51.786;4.662;2024-03-23T13:45:42;11.03;59.07
82788;DHT22;72529;51.786;4.662;2024-03-23T13:48:07;10.85;58.46
82788;DHT22;72529;51.786;4.662;2024-03-23T13:50:33;10.57;58.55
82788;DHT22;72529;51.786;4.662;2024-03-23T13:52:58;10.46;58.02
82788;DHT22;72529;51.786;4.662;2024-03-23T13:55:24;10.09;58.74
82788;DHT22;72529;51.786;4.662;2024-03-23T13:57:49;9.79;59.34
82788;DHT22;72529;51.786;4.662;2024-03-23T14:00:16;9.47;62.91
82788;DHT22;72529;51.786;4.662;2024-03-23T14:02:43;9.34;63.81
82788;DHT22;72529;51.786;4.662;2024-03-23T14:05:09;9.31;64.73
82788;DHT22;72529;51.786;4.662;2024-03-23T14:07:34;9.13;64.80
82788;DHT22;72529;51.786;4.662;2024-03-23T14:10:03;9.24;64.92
82788;DHT22;72529;51.786;4.662;2024-03-23T14:12:31;9.40;65.28
82788;DHT22;72529;51.786;4.662;2024-03-23T14:14:57;9.54;65.44
82788;DHT22;72529;51.786;4.662;2024-03-23T14:17:22;9.24;61.84
82788;DHT22;72529;51.786;4.662;2024-03-23T14:19:48;8.90;63.92
82788;DHT22;72529;51.786;4.662;2024-03-23T14:22:13;9.03;63.87
82788;DHT22;72529;51.786;4.662;2024-03-23T14:24:38;8.90;64.62
82788;DHT22;72529;51.786;4.662;2024-03-23T14:27:04;9.14;65.85
82788;DHT22;72529;51.786;4.662;2024-03-23T14:29:32;9.04;65.71
82788;DHT22;72529;51.786;4.662;2024-03-23T14:31:59;8.80;64.01
82788;DHT22;72529;51.786;4.662;2024-03-23T14:34:26;8.84;66.22
82788;DHT22;72529;51.786;4.662;2024-03-23T14:36:54;9.23;65.52
82788;DHT22;72529;51.786;4.662;2024-03-23T14:39:23;9.41;65.83
82788;DHT22;72529;51.786;4.662;2024-03-23T14:41:50;9.55;66.77
82788;DHT22;72529;51.786;4.662;2024-03-23T14:44:15;9.86;66.17
82788;DHT22;72529;51.786;4.662;2024-03-23T14:46:41;9.72;65.15
82788;DHT22;72529;51.786;4.662;2024-03-23T14:49:06;9.40;66.26
82788;DHT22;72529;51.786;4.662;2024-03-23T14:51:32;9.07;68.24
82788;DHT22;72529;51.786;4.662;2024-03-23T14:53:58;8.86;68.12
82788;DHT22;72529;51.786;4.662;2024-03-23T14:56:24;8.80;70.06
82788;DHT22;72529;51.786;4.662;2024-03-23T14:58:53;8.87;69.63
82788;DHT22;72529;51.786;4.662;2024-03-23T15:01:18;8.70;68.69
82788;DHT22;72529;51.786;4.662;2024-03-23T15:03:44;8.49;69.76
82788;DHT22;72529;51.786;4.662;2024-03-23T15:06:09;8.38;69.55
82788;DHT22;72529;51.786;4.662;2024-03-23T15:08:36;8.15;68.91
82788;DHT22;72529;51.786;4.662;2024-03-23T15:11:03;8.15;69.38
82788;DHT22;72529;51.786;4.662;2024-03-23T15:13:34;8.24;69.06
82788;DHT22;72529;51.786;4.662;2024-03-23T15:16:00;8.48;69.11
82788;DHT22;72529;51.786;4.662;2024-03-23T15:18:29;8.77;68.65
82788;DHT22;72529;51.786;4.662;2024-03-23T15:20:56;9.18;67.71
82788;DHT22;72529;51.786;4.662;2024-03-23T15:23:23;9.48;66.41
82788;DHT22;72529;51.786;4.662;2024-03-23T15:25:55;9.72;66.39
82788;DHT22;72529;51.786;4.662;2024-03-23T15:28:22;9.96;66.25
82788;DHT22;72529;51.786;4.662;2024-03-23T15:30:48;10.13;64.68
82788;DHT22;72529;51.786;4.662;2024-03-23T15:33:14;10.26;63.74
82788;DHT22;72529;51.786;4.662;2024-03-23T15:35:39;10.33;63.73
82788;DHT22;72529;51.786;4.662;2024-03-23T15:38:04;10.30;63.08
82788;DHT22;72529;51.786;4.662;2024-03-23T15:40:30;10.17;64.08
82788;DHT22;72529;51.786;4.662;2024-03-23T15:42:55;9.93;62.66
82788;DHT22;72529;51.786;4.662;2024-03-23T15:45:21;9.72;63.35
82788;DHT22;72529;51.786;4.662;2024-03-23T15:47:46;9.55;64.66
82788;DHT22;72529;51.786;4.662;2024-03-23T15:50:12;9.41;66.11
82788;DHT22;72529;51.786;4.662;2024-03-23T15:52:37;9.37;64.65
82788;DHT22;72529;51.786;4.662;2024-03-23T15:55:06;9.62;66.19
82788;DHT22;72529;51.786;4.662;2024-03-23T15:57:33;9.96;65.28
82788;DHT22;72529;51.786;4.662;2024-03-23T15:59:59;10.15;63.33
82788;DHT22;72529;51.786;4.662;2024-03-23T16:02:24;10.37;63.56
82788;DHT22;72529;51.786;4.662;2024-03-23T16:04:49;10.37;62.48
82788;DHT22;72529;51.786;4.662;2024-03-23T16:07:15;10.36;63.31
82788;DHT22;72529;51.786;4.662;2024-03-23T16:09:40;10.33;62.54
82788;DHT22;72529;51.786;4.662;2024-03-23T16:12:06;10.16;63.54
82788;DHT22;72529;51.786;4.662;2024-03-23T16:14:31;9.98;65.04
82788;DHT22;72529;51.786;4.662;2024-03-23T16:16:56;9.85;64.39
82788;DHT22;72529;51.786;4.662;2024-03-23T16:19:22;9.81;64.59
82788;DHT22;72529;51.786;4.662;2024-03-23T16:21:48;9.74;65.52
82788;DHT22;72529;51.786;4.662;2024-03-23T16:24:13;9.77;66.79
82788;DHT22;72529;51.786;4.662;2024-03-23T16:26:39;9.75;66.78
82788;DHT22;72529;51.786;4.662;2024-03-23T16:29:04;9.77;67.26
82788;DHT22;72529;51.786;4.662;2024-03-23T16:31:29;9.88;67.38
82788;DHT22;72529;51.786;4.662;2024-03-23T16:33:55;9.99;66.89
82788;DHT22;72529;51.786;4.662;2024-03-23T16:36:20;9.98;66.78
82788;DHT22;72529;51.786;4.662;2024-03-23T16:38:47;9.92;66.67
82788;DHT22;72529;51.786;4.662;2024-03-23T16:41:13;10.08;67.37
82788;DHT22;72529;51.786;4.662;2024-03-23T16:43:40;10.23;66.96
82788;DHT22;72529;51.786;4.662;2024-03-23T16:46:10;10.37;67.16
82788;DHT22;72529;51.786;4.662;2024-03-23T16:48:40;10.66;66.53